DLH99E EDDF-LPPD
Flight info
| Callsign | DLH99E |
|---|---|
| Flight time | 4h 26m |
| Altitude | 33000 |
| Route | SOBRA2L/18 SOBRA Y180 DIK UN857 TOLVU DCT RAPOR DCT GIMER DCT ESTOC UT300 PON UN872 ERIGA DCT FUJTI DCT ATLEN DCT ABUPI DCT LUTAK/M074F330 DCT 36N020W DCT ETROX |
| Aircraft | A320/M-SDE3FGHIRWY/LB1 |
Departure
| Time | 2026-04-13 13:31 |
|---|---|
| Airport | Frankfurt Main Airport (EDDF) |
Arrival
| Time | 2026-04-13 17:58 |
|---|---|
| Airport | João Paulo II Airport (LPPD) |
| Time | Latitude | Longitude | Altitude | Speed | Heading |
|---|---|---|---|---|---|
| 2026-04-13 12:50 | 50.04389 | 8.56169 | 362 ft | 0 kts | 155° |
| 2026-04-13 13:18 | 50.04396 | 8.56164 | 361 ft | 4 kts | 154° |
| 2026-04-13 13:19 | 50.04420 | 8.56146 | 364 ft | 4 kts | 155° |
| 2026-04-13 13:19 | 50.04444 | 8.56133 | 366 ft | 4 kts | 192° |
| 2026-04-13 13:19 | 50.04461 | 8.56153 | 362 ft | 2 kts | 249° |
| 2026-04-13 13:19 | 50.04457 | 8.56136 | 362 ft | 4 kts | 249° |
| 2026-04-13 13:20 | 50.04451 | 8.56111 | 365 ft | 0 kts | 249° |
| 2026-04-13 13:23 | 50.04448 | 8.56098 | 361 ft | 3 kts | 249° |
| 2026-04-13 13:23 | 50.04435 | 8.56045 | 362 ft | 7 kts | 250° |
| 2026-04-13 13:24 | 50.04408 | 8.55951 | 366 ft | 11 kts | 232° |
| 2026-04-13 13:24 | 50.04328 | 8.55937 | 361 ft | 16 kts | 160° |
| 2026-04-13 13:24 | 50.04235 | 8.55934 | 364 ft | 13 kts | 209° |
| 2026-04-13 13:24 | 50.04153 | 8.55938 | 364 ft | 12 kts | 159° |
| 2026-04-13 13:25 | 50.04076 | 8.55968 | 361 ft | 12 kts | 189° |
| 2026-04-13 13:25 | 50.04027 | 8.55859 | 361 ft | 15 kts | 249° |
| 2026-04-13 13:25 | 50.03940 | 8.55497 | 361 ft | 18 kts | 250° |
| 2026-04-13 13:26 | 50.03895 | 8.55309 | 361 ft | 19 kts | 249° |
| 2026-04-13 13:26 | 50.03849 | 8.55115 | 362 ft | 20 kts | 249° |
| 2026-04-13 13:26 | 50.03801 | 8.54914 | 364 ft | 20 kts | 250° |
| 2026-04-13 13:26 | 50.03753 | 8.54712 | 360 ft | 20 kts | 250° |
| 2026-04-13 13:27 | 50.03703 | 8.54505 | 362 ft | 21 kts | 250° |
| 2026-04-13 13:27 | 50.03652 | 8.54293 | 362 ft | 21 kts | 250° |
| 2026-04-13 13:27 | 50.03599 | 8.54071 | 362 ft | 22 kts | 249° |
| 2026-04-13 13:27 | 50.03544 | 8.53841 | 363 ft | 23 kts | 249° |
| 2026-04-13 13:28 | 50.03488 | 8.53605 | 362 ft | 24 kts | 250° |
| 2026-04-13 13:28 | 50.03430 | 8.53362 | 364 ft | 24 kts | 250° |
| 2026-04-13 13:28 | 50.03371 | 8.53116 | 363 ft | 24 kts | 249° |
| 2026-04-13 13:28 | 50.03313 | 8.52873 | 363 ft | 24 kts | 250° |
| 2026-04-13 13:29 | 50.03271 | 8.52699 | 365 ft | 12 kts | 251° |
| 2026-04-13 13:29 | 50.03257 | 8.52609 | 366 ft | 7 kts | 243° |
| 2026-04-13 13:29 | 50.03219 | 8.52595 | 366 ft | 5 kts | 178° |
| 2026-04-13 13:29 | 50.03207 | 8.52595 | 362 ft | 0 kts | 179° |
| 2026-04-13 13:30 | 50.03116 | 8.52596 | 361 ft | 43 kts | 179° |
| 2026-04-13 13:31 | 50.02580 | 8.52602 | 367 ft | 107 kts | 179° |
| 2026-04-13 13:31 | 50.01650 | 8.52611 | 362 ft | 157 kts | 180° |
| 2026-04-13 13:31 | 50.00446 | 8.52631 | 584 ft | 178 kts | 179° |
| 2026-04-13 13:31 | 49.99226 | 8.52702 | 1303 ft | 174 kts | 178° |
| 2026-04-13 13:32 | 49.97991 | 8.52783 | 1795 ft | 185 kts | 177° |
| 2026-04-13 13:32 | 49.96644 | 8.52878 | 2087 ft | 203 kts | 178° |
| 2026-04-13 13:32 | 49.95171 | 8.52974 | 2413 ft | 221 kts | 177° |
| 2026-04-13 13:32 | 49.93592 | 8.53074 | 2959 ft | 231 kts | 177° |
| 2026-04-13 13:33 | 49.91981 | 8.53179 | 3746 ft | 232 kts | 178° |
| 2026-04-13 13:33 | 49.90373 | 8.53285 | 4571 ft | 231 kts | 178° |
| 2026-04-13 13:33 | 49.88762 | 8.53392 | 5359 ft | 232 kts | 178° |
| 2026-04-13 13:33 | 49.87148 | 8.53306 | 6085 ft | 235 kts | 192° |
| 2026-04-13 13:34 | 49.85522 | 8.52516 | 6422 ft | 257 kts | 199° |
| 2026-04-13 13:34 | 49.83800 | 8.51548 | 6940 ft | 268 kts | 200° |
| 2026-04-13 13:34 | 49.82043 | 8.50541 | 7687 ft | 270 kts | 200° |
| 2026-04-13 13:34 | 49.80277 | 8.49526 | 8490 ft | 271 kts | 199° |
| 2026-04-13 13:35 | 49.78508 | 8.48494 | 9294 ft | 273 kts | 202° |
| 2026-04-13 13:35 | 49.76959 | 8.46791 | 10042 ft | 279 kts | 227° |
| 2026-04-13 13:35 | 49.76027 | 8.44133 | 10704 ft | 288 kts | 253° |
| 2026-04-13 13:35 | 49.75979 | 8.41015 | 11367 ft | 298 kts | 279° |
| 2026-04-13 13:36 | 49.76474 | 8.37909 | 11877 ft | 310 kts | 282° |
| 2026-04-13 13:36 | 49.77021 | 8.34562 | 12025 ft | 332 kts | 282° |
| 2026-04-13 13:36 | 49.77600 | 8.31007 | 12365 ft | 346 kts | 282° |
| 2026-04-13 13:36 | 49.78192 | 8.27381 | 12972 ft | 350 kts | 282° |
| 2026-04-13 13:37 | 49.78789 | 8.23712 | 13628 ft | 353 kts | 282° |
| 2026-04-13 13:37 | 49.79389 | 8.20008 | 14212 ft | 356 kts | 282° |
| 2026-04-13 13:37 | 49.79991 | 8.16264 | 14792 ft | 360 kts | 281° |
| 2026-04-13 13:37 | 49.80593 | 8.12491 | 15375 ft | 363 kts | 281° |
| 2026-04-13 13:38 | 49.81196 | 8.08675 | 15967 ft | 367 kts | 281° |
| 2026-04-13 13:38 | 49.81805 | 8.04817 | 16535 ft | 371 kts | 281° |
| 2026-04-13 13:38 | 49.82419 | 8.00921 | 17087 ft | 374 kts | 281° |
| 2026-04-13 13:38 | 49.83041 | 7.96987 | 17648 ft | 378 kts | 281° |
| 2026-04-13 13:39 | 49.83669 | 7.93019 | 18225 ft | 381 kts | 280° |
| 2026-04-13 13:39 | 49.84300 | 7.89012 | 18709 ft | 385 kts | 280° |
| 2026-04-13 13:39 | 49.84931 | 7.84963 | 19198 ft | 387 kts | 279° |
| 2026-04-13 13:39 | 49.85562 | 7.80900 | 19671 ft | 389 kts | 279° |
| 2026-04-13 13:40 | 49.86200 | 7.76805 | 20131 ft | 392 kts | 279° |
| 2026-04-13 13:40 | 49.86846 | 7.72687 | 20598 ft | 395 kts | 279° |
| 2026-04-13 13:40 | 49.87497 | 7.68548 | 21068 ft | 397 kts | 279° |
| 2026-04-13 13:40 | 49.88150 | 7.64375 | 21539 ft | 399 kts | 279° |
| 2026-04-13 13:41 | 49.88803 | 7.60174 | 22001 ft | 402 kts | 279° |
| 2026-04-13 13:41 | 49.89455 | 7.55951 | 22449 ft | 404 kts | 278° |
| 2026-04-13 13:41 | 49.90107 | 7.51701 | 22872 ft | 406 kts | 278° |
| 2026-04-13 13:41 | 49.90762 | 7.47428 | 23286 ft | 408 kts | 278° |
| 2026-04-13 13:42 | 49.91418 | 7.43136 | 23677 ft | 411 kts | 278° |
| 2026-04-13 13:42 | 49.92076 | 7.38816 | 24026 ft | 412 kts | 278° |
| 2026-04-13 13:42 | 49.92734 | 7.34473 | 24376 ft | 414 kts | 278° |
| 2026-04-13 13:42 | 49.93386 | 7.30165 | 24710 ft | 416 kts | 278° |
| 2026-04-13 13:43 | 49.94049 | 7.25787 | 25059 ft | 418 kts | 278° |
| 2026-04-13 13:43 | 49.94713 | 7.21385 | 25392 ft | 420 kts | 278° |
| 2026-04-13 13:43 | 49.95378 | 7.16969 | 25723 ft | 421 kts | 278° |
| 2026-04-13 13:43 | 49.96045 | 7.12527 | 26051 ft | 423 kts | 278° |
| 2026-04-13 13:44 | 49.96711 | 7.08073 | 26378 ft | 425 kts | 278° |
| 2026-04-13 13:44 | 49.97378 | 7.03593 | 26689 ft | 426 kts | 278° |
| 2026-04-13 13:44 | 49.98045 | 6.99089 | 27001 ft | 428 kts | 278° |
| 2026-04-13 13:44 | 49.98496 | 6.96042 | 27199 ft | 429 kts | 278° |
| 2026-04-13 13:45 | 49.99076 | 6.91497 | 27510 ft | 428 kts | 272° |
| 2026-04-13 13:45 | 49.99233 | 6.86921 | 27826 ft | 424 kts | 263° |
| 2026-04-13 13:45 | 49.99100 | 6.82338 | 28148 ft | 425 kts | 262° |
| 2026-04-13 13:45 | 49.98958 | 6.77741 | 28453 ft | 426 kts | 262° |
| 2026-04-13 13:46 | 49.98816 | 6.73127 | 28758 ft | 428 kts | 262° |
| 2026-04-13 13:46 | 49.98671 | 6.68502 | 29055 ft | 430 kts | 262° |
| 2026-04-13 13:46 | 49.98528 | 6.63919 | 29330 ft | 431 kts | 262° |
| 2026-04-13 13:46 | 49.98325 | 6.59277 | 29617 ft | 430 kts | 257° |
| 2026-04-13 13:47 | 49.97725 | 6.54751 | 29885 ft | 426 kts | 249° |
| 2026-04-13 13:47 | 49.96702 | 6.50465 | 30121 ft | 423 kts | 242° |
| 2026-04-13 13:47 | 49.95522 | 6.46275 | 30335 ft | 424 kts | 242° |
| 2026-04-13 13:47 | 49.94347 | 6.42079 | 30636 ft | 424 kts | 242° |
| 2026-04-13 13:48 | 49.93174 | 6.37883 | 30941 ft | 423 kts | 242° |
| 2026-04-13 13:48 | 49.92005 | 6.33704 | 31259 ft | 422 kts | 242° |
| 2026-04-13 13:48 | 49.90831 | 6.29531 | 31565 ft | 421 kts | 242° |
| 2026-04-13 13:48 | 49.89652 | 6.25385 | 31898 ft | 420 kts | 241° |
| 2026-04-13 13:49 | 49.88449 | 6.21266 | 32222 ft | 419 kts | 241° |
| 2026-04-13 13:49 | 49.87263 | 6.17140 | 32557 ft | 419 kts | 241° |
| 2026-04-13 13:49 | 49.86026 | 6.13074 | 32869 ft | 415 kts | 236° |
| 2026-04-13 13:50 | 49.82819 | 6.05739 | 32949 ft | 410 kts | 230° |
| 2026-04-13 13:50 | 49.79518 | 5.98546 | 32953 ft | 410 kts | 230° |
| 2026-04-13 13:51 | 49.76201 | 5.91370 | 32950 ft | 410 kts | 230° |
| 2026-04-13 13:51 | 49.73392 | 5.83656 | 32952 ft | 419 kts | 245° |
| 2026-04-13 13:52 | 49.71438 | 5.75168 | 32958 ft | 419 kts | 245° |
| 2026-04-13 13:52 | 49.69469 | 5.66694 | 32970 ft | 419 kts | 245° |
| 2026-04-13 13:53 | 49.67503 | 5.58296 | 32962 ft | 419 kts | 245° |
| 2026-04-13 13:53 | 49.65518 | 5.49842 | 32966 ft | 419 kts | 245° |
| 2026-04-13 13:54 | 49.63570 | 5.41600 | 32962 ft | 419 kts | 245° |
| 2026-04-13 13:54 | 49.61607 | 5.33141 | 32959 ft | 419 kts | 246° |
| 2026-04-13 13:55 | 49.59780 | 5.24591 | 32961 ft | 420 kts | 247° |
| 2026-04-13 13:55 | 49.58068 | 5.15976 | 32964 ft | 421 kts | 249° |
| 2026-04-13 13:56 | 49.56579 | 5.07246 | 32964 ft | 422 kts | 250° |
| 2026-04-13 13:56 | 49.55099 | 4.98500 | 32968 ft | 422 kts | 250° |
| 2026-04-13 13:57 | 49.53559 | 4.89795 | 32973 ft | 421 kts | 249° |
| 2026-04-13 13:57 | 49.51987 | 4.81107 | 32977 ft | 421 kts | 249° |
| 2026-04-13 13:58 | 49.50418 | 4.72435 | 32987 ft | 421 kts | 249° |
| 2026-04-13 13:58 | 49.48848 | 4.63757 | 32992 ft | 421 kts | 249° |
| 2026-04-13 13:59 | 49.47264 | 4.55108 | 32996 ft | 420 kts | 249° |
| 2026-04-13 13:59 | 49.45681 | 4.46462 | 32997 ft | 420 kts | 249° |
| 2026-04-13 14:00 | 49.44095 | 4.37821 | 32996 ft | 420 kts | 249° |
| 2026-04-13 14:00 | 49.42512 | 4.29255 | 32994 ft | 420 kts | 249° |
| 2026-04-13 14:01 | 49.40911 | 4.20644 | 32989 ft | 419 kts | 249° |
| 2026-04-13 14:01 | 49.39305 | 4.12044 | 32992 ft | 419 kts | 249° |
| 2026-04-13 14:02 | 49.37689 | 4.03452 | 32982 ft | 419 kts | 249° |
| 2026-04-13 14:02 | 49.36098 | 3.94852 | 32984 ft | 420 kts | 250° |
| 2026-04-13 14:03 | 49.34816 | 3.86094 | 32984 ft | 422 kts | 253° |
| 2026-04-13 14:03 | 49.33655 | 3.77268 | 32992 ft | 422 kts | 253° |
| 2026-04-13 14:04 | 49.32436 | 3.68465 | 32985 ft | 422 kts | 252° |
| 2026-04-13 14:04 | 49.31154 | 3.59698 | 32995 ft | 421 kts | 251° |
| 2026-04-13 14:05 | 49.29862 | 3.50943 | 32998 ft | 421 kts | 251° |
| 2026-04-13 14:05 | 49.28574 | 3.42186 | 32997 ft | 421 kts | 251° |
| 2026-04-13 14:06 | 49.27288 | 3.33434 | 32996 ft | 421 kts | 251° |
| 2026-04-13 14:06 | 49.25988 | 3.24696 | 32990 ft | 421 kts | 251° |
| 2026-04-13 14:07 | 49.24677 | 3.15959 | 32989 ft | 421 kts | 251° |
| 2026-04-13 14:07 | 49.23375 | 3.07233 | 32995 ft | 421 kts | 251° |
| 2026-04-13 14:08 | 49.22065 | 2.98518 | 32998 ft | 420 kts | 251° |
| 2026-04-13 14:08 | 49.20969 | 2.91289 | 32997 ft | 420 kts | 251° |
| 2026-04-13 14:09 | 49.20280 | 2.86728 | 32999 ft | 419 kts | 251° |
| 2026-04-13 14:09 | 49.18948 | 2.78047 | 32995 ft | 419 kts | 251° |
| 2026-04-13 14:10 | 49.17610 | 2.69376 | 32981 ft | 419 kts | 252° |
| 2026-04-13 14:10 | 49.16288 | 2.60757 | 32992 ft | 420 kts | 252° |
| 2026-04-13 14:11 | 49.14945 | 2.52084 | 32984 ft | 420 kts | 252° |
| 2026-04-13 14:11 | 49.13585 | 2.43405 | 32995 ft | 420 kts | 252° |
| 2026-04-13 14:12 | 49.12514 | 2.34612 | 32983 ft | 423 kts | 258° |
| 2026-04-13 14:12 | 49.11696 | 2.25702 | 32993 ft | 424 kts | 258° |
| 2026-04-13 14:13 | 49.10860 | 2.16790 | 32991 ft | 425 kts | 258° |
| 2026-04-13 14:13 | 49.10014 | 2.07870 | 32995 ft | 425 kts | 258° |
| 2026-04-13 14:14 | 49.08346 | 1.99343 | 32990 ft | 418 kts | 243° |
| 2026-04-13 14:14 | 49.07130 | 1.95319 | 32989 ft | 418 kts | 243° |
| 2026-04-13 14:14 | 49.04699 | 1.87245 | 32986 ft | 419 kts | 243° |
| 2026-04-13 14:15 | 49.02265 | 1.79176 | 32979 ft | 420 kts | 244° |
| 2026-04-13 14:15 | 48.99808 | 1.71086 | 32978 ft | 421 kts | 244° |
| 2026-04-13 14:16 | 48.97356 | 1.62984 | 32986 ft | 422 kts | 244° |
| 2026-04-13 14:16 | 48.94888 | 1.54874 | 32992 ft | 423 kts | 244° |
| 2026-04-13 14:17 | 48.92394 | 1.46747 | 32996 ft | 424 kts | 245° |
| 2026-04-13 14:17 | 48.89894 | 1.38613 | 33000 ft | 425 kts | 245° |
| 2026-04-13 14:18 | 48.87383 | 1.30468 | 33001 ft | 426 kts | 245° |
| 2026-04-13 14:18 | 48.84867 | 1.22298 | 33000 ft | 427 kts | 246° |
| 2026-04-13 14:19 | 48.82344 | 1.14128 | 33002 ft | 428 kts | 246° |
| 2026-04-13 14:19 | 48.79807 | 1.05961 | 32994 ft | 428 kts | 246° |
| 2026-04-13 14:20 | 48.77270 | 0.97845 | 32991 ft | 429 kts | 246° |
| 2026-04-13 14:20 | 48.74703 | 0.89681 | 32981 ft | 430 kts | 245° |
| 2026-04-13 14:21 | 48.71633 | 0.81881 | 32983 ft | 432 kts | 241° |
| 2026-04-13 14:21 | 48.68494 | 0.74130 | 32980 ft | 432 kts | 242° |
| 2026-04-13 14:22 | 48.65346 | 0.66382 | 32984 ft | 433 kts | 242° |
| 2026-04-13 14:22 | 48.62190 | 0.58624 | 32984 ft | 433 kts | 242° |
| 2026-04-13 14:23 | 48.59024 | 0.50872 | 32985 ft | 434 kts | 242° |
| 2026-04-13 14:23 | 48.55850 | 0.43114 | 32986 ft | 434 kts | 242° |
| 2026-04-13 14:24 | 48.52671 | 0.35357 | 32984 ft | 434 kts | 243° |
| 2026-04-13 14:24 | 48.49488 | 0.27619 | 32983 ft | 434 kts | 243° |
| 2026-04-13 14:25 | 48.46286 | 0.19891 | 32997 ft | 435 kts | 243° |
| 2026-04-13 14:25 | 48.43080 | 0.12171 | 32998 ft | 435 kts | 243° |
| 2026-04-13 14:26 | 48.39875 | 0.04455 | 32994 ft | 435 kts | 243° |
| 2026-04-13 14:26 | 48.36665 | -0.03249 | 32999 ft | 435 kts | 243° |
| 2026-04-13 14:27 | 48.33234 | -0.10777 | 33002 ft | 438 kts | 239° |
| 2026-04-13 14:27 | 48.29539 | -0.18052 | 33003 ft | 438 kts | 238° |
| 2026-04-13 14:28 | 48.25815 | -0.25291 | 33006 ft | 437 kts | 238° |
| 2026-04-13 14:28 | 48.22123 | -0.32541 | 33004 ft | 437 kts | 239° |
| 2026-04-13 14:29 | 48.18454 | -0.39734 | 33005 ft | 437 kts | 239° |
| 2026-04-13 14:29 | 48.14762 | -0.46961 | 33008 ft | 437 kts | 239° |
| 2026-04-13 14:30 | 48.11067 | -0.54165 | 33014 ft | 436 kts | 239° |
| 2026-04-13 14:30 | 48.07356 | -0.61351 | 33015 ft | 436 kts | 239° |
| 2026-04-13 14:31 | 48.03652 | -0.68519 | 33014 ft | 436 kts | 239° |
| 2026-04-13 14:31 | 47.99946 | -0.75681 | 33015 ft | 436 kts | 239° |
| 2026-04-13 14:32 | 47.96234 | -0.82843 | 33015 ft | 436 kts | 239° |
| 2026-04-13 14:32 | 47.92522 | -0.89981 | 33018 ft | 435 kts | 239° |
| 2026-04-13 14:33 | 47.88807 | -0.97105 | 33013 ft | 435 kts | 238° |
| 2026-04-13 14:33 | 47.85716 | -1.03020 | 33013 ft | 435 kts | 238° |
| 2026-04-13 14:34 | 47.81993 | -1.10125 | 33015 ft | 435 kts | 238° |
| 2026-04-13 14:34 | 47.78267 | -1.17208 | 33012 ft | 435 kts | 238° |
| 2026-04-13 14:35 | 47.74534 | -1.24289 | 33015 ft | 435 kts | 238° |
| 2026-04-13 14:35 | 47.70798 | -1.31362 | 33013 ft | 435 kts | 238° |
| 2026-04-13 14:36 | 47.67060 | -1.38420 | 33012 ft | 435 kts | 238° |
| 2026-04-13 14:36 | 47.63317 | -1.45470 | 33016 ft | 435 kts | 238° |
| 2026-04-13 14:37 | 47.59554 | -1.52504 | 33016 ft | 436 kts | 237° |
| 2026-04-13 14:37 | 47.55596 | -1.59272 | 33016 ft | 439 kts | 234° |
| 2026-04-13 14:38 | 47.51455 | -1.65911 | 33022 ft | 439 kts | 233° |
| 2026-04-13 14:38 | 47.47320 | -1.72547 | 33028 ft | 439 kts | 234° |
| 2026-04-13 14:39 | 47.43229 | -1.79234 | 33035 ft | 438 kts | 234° |
| 2026-04-13 14:39 | 47.39151 | -1.85922 | 33049 ft | 438 kts | 234° |
| 2026-04-13 14:40 | 47.34939 | -1.92459 | 33047 ft | 444 kts | 226° |
| 2026-04-13 14:40 | 47.29718 | -1.97535 | 33044 ft | 452 kts | 217° |
| 2026-04-13 14:41 | 47.24337 | -2.02338 | 33051 ft | 452 kts | 217° |
| 2026-04-13 14:41 | 47.18956 | -2.07146 | 33034 ft | 453 kts | 217° |
| 2026-04-13 14:42 | 47.13606 | -2.11911 | 33035 ft | 453 kts | 217° |
| 2026-04-13 14:42 | 47.08214 | -2.16696 | 33045 ft | 453 kts | 217° |
| 2026-04-13 14:43 | 47.02823 | -2.21470 | 33041 ft | 453 kts | 217° |
| 2026-04-13 14:43 | 46.97386 | -2.26272 | 33044 ft | 453 kts | 217° |
| 2026-04-13 14:44 | 46.92025 | -2.31003 | 33051 ft | 453 kts | 217° |
| 2026-04-13 14:44 | 46.86627 | -2.35753 | 33058 ft | 453 kts | 217° |
| 2026-04-13 14:45 | 46.81226 | -2.40504 | 33060 ft | 453 kts | 217° |
| 2026-04-13 14:45 | 46.75824 | -2.45245 | 33063 ft | 453 kts | 217° |
| 2026-04-13 14:46 | 46.70418 | -2.49974 | 33065 ft | 453 kts | 216° |
| 2026-04-13 14:46 | 46.65003 | -2.54693 | 33062 ft | 453 kts | 216° |
| 2026-04-13 14:47 | 46.59589 | -2.59406 | 33063 ft | 454 kts | 216° |
| 2026-04-13 14:47 | 46.54170 | -2.64108 | 33060 ft | 454 kts | 216° |
| 2026-04-13 14:48 | 46.48744 | -2.68813 | 33063 ft | 454 kts | 216° |
| 2026-04-13 14:48 | 46.43322 | -2.73506 | 33063 ft | 454 kts | 216° |
| 2026-04-13 14:49 | 46.37893 | -2.78191 | 33065 ft | 454 kts | 216° |
| 2026-04-13 14:49 | 46.32457 | -2.82867 | 33076 ft | 454 kts | 216° |
| 2026-04-13 14:50 | 46.27042 | -2.87569 | 33069 ft | 452 kts | 220° |
| 2026-04-13 14:50 | 46.22225 | -2.93259 | 33071 ft | 447 kts | 226° |
| 2026-04-13 14:51 | 46.17480 | -2.99061 | 33068 ft | 447 kts | 226° |
| 2026-04-13 14:51 | 46.12725 | -3.04844 | 33067 ft | 447 kts | 225° |
| 2026-04-13 14:52 | 46.07961 | -3.10620 | 33064 ft | 448 kts | 225° |
| 2026-04-13 14:52 | 46.03200 | -3.16397 | 33067 ft | 448 kts | 225° |
| 2026-04-13 14:53 | 45.98438 | -3.22169 | 33069 ft | 448 kts | 225° |
| 2026-04-13 14:53 | 45.93668 | -3.27925 | 33067 ft | 447 kts | 225° |
| 2026-04-13 14:54 | 45.88897 | -3.33662 | 33071 ft | 447 kts | 225° |
| 2026-04-13 14:54 | 45.84161 | -3.39353 | 33070 ft | 447 kts | 225° |
| 2026-04-13 14:55 | 45.79388 | -3.45084 | 33068 ft | 447 kts | 225° |
| 2026-04-13 14:55 | 45.74607 | -3.50790 | 33067 ft | 447 kts | 225° |
| 2026-04-13 14:56 | 45.69824 | -3.56486 | 33073 ft | 447 kts | 225° |
| 2026-04-13 14:56 | 45.65047 | -3.62189 | 33071 ft | 447 kts | 225° |
| 2026-04-13 14:57 | 45.60262 | -3.67870 | 33072 ft | 447 kts | 225° |
| 2026-04-13 14:58 | 45.53081 | -3.76384 | 33071 ft | 448 kts | 225° |
| 2026-04-13 14:58 | 45.48283 | -3.82047 | 33072 ft | 448 kts | 225° |
| 2026-04-13 14:59 | 45.43517 | -3.87663 | 33074 ft | 448 kts | 225° |
| 2026-04-13 14:59 | 45.38711 | -3.93316 | 33079 ft | 448 kts | 225° |
| 2026-04-13 15:00 | 45.33902 | -3.98949 | 33078 ft | 448 kts | 225° |
| 2026-04-13 15:00 | 45.29089 | -4.04578 | 33077 ft | 448 kts | 225° |
| 2026-04-13 15:01 | 45.24272 | -4.10198 | 33079 ft | 448 kts | 225° |
| 2026-04-13 15:01 | 45.19450 | -4.15802 | 33074 ft | 448 kts | 224° |
| 2026-04-13 15:02 | 45.14632 | -4.21416 | 33079 ft | 449 kts | 225° |
| 2026-04-13 15:02 | 45.09802 | -4.27021 | 33076 ft | 449 kts | 224° |
| 2026-04-13 15:03 | 45.04972 | -4.32616 | 33082 ft | 449 kts | 224° |
| 2026-04-13 15:03 | 45.00133 | -4.38196 | 33080 ft | 449 kts | 224° |
| 2026-04-13 15:04 | 44.95284 | -4.43771 | 33075 ft | 449 kts | 224° |
| 2026-04-13 15:04 | 44.90441 | -4.49342 | 33083 ft | 449 kts | 224° |
| 2026-04-13 15:05 | 44.85620 | -4.54868 | 33095 ft | 450 kts | 224° |
| 2026-04-13 15:05 | 44.80761 | -4.60422 | 33094 ft | 450 kts | 224° |
| 2026-04-13 15:06 | 44.75907 | -4.65970 | 33092 ft | 450 kts | 224° |
| 2026-04-13 15:06 | 44.71045 | -4.71510 | 33088 ft | 450 kts | 224° |
| 2026-04-13 15:07 | 44.66185 | -4.77042 | 33082 ft | 450 kts | 224° |
| 2026-04-13 15:07 | 44.61315 | -4.82560 | 33084 ft | 450 kts | 224° |
| 2026-04-13 15:08 | 44.56434 | -4.88073 | 33084 ft | 450 kts | 224° |
| 2026-04-13 15:08 | 44.51555 | -4.93588 | 33083 ft | 451 kts | 224° |
| 2026-04-13 15:09 | 44.46295 | -4.98487 | 33083 ft | 456 kts | 217° |
| 2026-04-13 15:09 | 44.40903 | -5.03182 | 33086 ft | 456 kts | 217° |
| 2026-04-13 15:10 | 44.35512 | -5.07879 | 33084 ft | 457 kts | 217° |
| 2026-04-13 15:10 | 44.30121 | -5.12578 | 33088 ft | 457 kts | 217° |
| 2026-04-13 15:11 | 44.24755 | -5.17232 | 33086 ft | 457 kts | 217° |
| 2026-04-13 15:11 | 44.19350 | -5.21917 | 33084 ft | 458 kts | 217° |
| 2026-04-13 15:12 | 44.13938 | -5.26602 | 33087 ft | 458 kts | 217° |
| 2026-04-13 15:12 | 44.08519 | -5.31278 | 33085 ft | 459 kts | 217° |
| 2026-04-13 15:13 | 44.03087 | -5.35947 | 33085 ft | 459 kts | 217° |
| 2026-04-13 15:13 | 43.97655 | -5.40624 | 33086 ft | 460 kts | 218° |
| 2026-04-13 15:14 | 43.92213 | -5.45302 | 33088 ft | 461 kts | 217° |
| 2026-04-13 15:14 | 43.86755 | -5.49965 | 33092 ft | 461 kts | 218° |
| 2026-04-13 15:15 | 43.81290 | -5.54631 | 33093 ft | 461 kts | 218° |
| 2026-04-13 15:15 | 43.75825 | -5.59291 | 33096 ft | 462 kts | 218° |
| 2026-04-13 15:16 | 43.70347 | -5.63941 | 33095 ft | 462 kts | 217° |
| 2026-04-13 15:16 | 43.64862 | -5.68587 | 33095 ft | 463 kts | 218° |
| 2026-04-13 15:17 | 43.59371 | -5.73237 | 33091 ft | 463 kts | 218° |
| 2026-04-13 15:17 | 43.53873 | -5.77886 | 33092 ft | 463 kts | 218° |
| 2026-04-13 15:18 | 43.48366 | -5.82516 | 33091 ft | 464 kts | 217° |
| 2026-04-13 15:18 | 43.42897 | -5.87112 | 33083 ft | 464 kts | 218° |
| 2026-04-13 15:19 | 43.37386 | -5.91745 | 33090 ft | 464 kts | 218° |
| 2026-04-13 15:19 | 43.31865 | -5.96368 | 33091 ft | 465 kts | 218° |
| 2026-04-13 15:20 | 43.26336 | -6.00982 | 33088 ft | 465 kts | 217° |
| 2026-04-13 15:20 | 43.20799 | -6.05603 | 33088 ft | 466 kts | 218° |
| 2026-04-13 15:21 | 43.15244 | -6.10227 | 33098 ft | 468 kts | 218° |
| 2026-04-13 15:21 | 43.09676 | -6.14844 | 33095 ft | 468 kts | 218° |
| 2026-04-13 15:22 | 43.04108 | -6.19453 | 33102 ft | 468 kts | 218° |
| 2026-04-13 15:22 | 42.98536 | -6.24064 | 33103 ft | 469 kts | 218° |
| 2026-04-13 15:23 | 42.92948 | -6.28669 | 33106 ft | 469 kts | 218° |
| 2026-04-13 15:23 | 42.87355 | -6.33271 | 33106 ft | 470 kts | 218° |
| 2026-04-13 15:24 | 42.81751 | -6.37863 | 33108 ft | 471 kts | 218° |
| 2026-04-13 15:24 | 42.76176 | -6.42436 | 33110 ft | 471 kts | 218° |
| 2026-04-13 15:25 | 42.70565 | -6.47033 | 33111 ft | 471 kts | 218° |
| 2026-04-13 15:25 | 42.64933 | -6.51626 | 33117 ft | 473 kts | 218° |
| 2026-04-13 15:26 | 42.59294 | -6.56219 | 33112 ft | 473 kts | 218° |
| 2026-04-13 15:26 | 42.53646 | -6.60811 | 33115 ft | 474 kts | 218° |
| 2026-04-13 15:27 | 42.47981 | -6.65404 | 33115 ft | 475 kts | 218° |
| 2026-04-13 15:27 | 42.42302 | -6.69990 | 33110 ft | 475 kts | 218° |
| 2026-04-13 15:28 | 42.37581 | -6.73803 | 33112 ft | 476 kts | 219° |
| 2026-04-13 15:28 | 42.31884 | -6.78390 | 33110 ft | 477 kts | 219° |
| 2026-04-13 15:29 | 42.25251 | -6.83722 | 33118 ft | 478 kts | 219° |
| 2026-04-13 15:29 | 42.19540 | -6.88304 | 33116 ft | 478 kts | 219° |
| 2026-04-13 15:30 | 42.14744 | -6.92147 | 33115 ft | 479 kts | 219° |
| 2026-04-13 15:30 | 42.09044 | -6.96704 | 33123 ft | 480 kts | 219° |
| 2026-04-13 15:31 | 42.03292 | -7.01285 | 33123 ft | 481 kts | 219° |
| 2026-04-13 15:31 | 41.97530 | -7.05863 | 33126 ft | 481 kts | 219° |
| 2026-04-13 15:32 | 41.91761 | -7.10447 | 33124 ft | 482 kts | 219° |
| 2026-04-13 15:32 | 41.85985 | -7.15030 | 33127 ft | 483 kts | 219° |
| 2026-04-13 15:33 | 41.80194 | -7.19611 | 33135 ft | 484 kts | 219° |
| 2026-04-13 15:33 | 41.74854 | -7.24809 | 33130 ft | 465 kts | 235° |
| 2026-04-13 15:34 | 41.70905 | -7.31400 | 33131 ft | 450 kts | 245° |
| 2026-04-13 15:34 | 41.69101 | -7.34755 | 33132 ft | 451 kts | 245° |
| 2026-04-13 15:34 | 41.65417 | -7.41560 | 33126 ft | 452 kts | 245° |
| 2026-04-13 15:35 | 41.61707 | -7.48366 | 33128 ft | 453 kts | 245° |
| 2026-04-13 15:35 | 41.57999 | -7.55179 | 33137 ft | 454 kts | 245° |
| 2026-04-13 15:36 | 41.54279 | -7.62005 | 33142 ft | 454 kts | 245° |
| 2026-04-13 15:36 | 41.50566 | -7.68824 | 33155 ft | 454 kts | 245° |
| 2026-04-13 15:37 | 41.46840 | -7.75640 | 33151 ft | 455 kts | 245° |
| 2026-04-13 15:37 | 41.43090 | -7.82444 | 33156 ft | 456 kts | 245° |
| 2026-04-13 15:38 | 41.39341 | -7.89249 | 33153 ft | 455 kts | 245° |
| 2026-04-13 15:38 | 41.35600 | -7.96040 | 33167 ft | 456 kts | 245° |
| 2026-04-13 15:39 | 41.31841 | -8.02848 | 33173 ft | 456 kts | 245° |
| 2026-04-13 15:39 | 41.28078 | -8.09645 | 33180 ft | 456 kts | 245° |
| 2026-04-13 15:40 | 41.24311 | -8.16435 | 33175 ft | 456 kts | 245° |
| 2026-04-13 15:40 | 41.20537 | -8.23218 | 33173 ft | 457 kts | 245° |
| 2026-04-13 15:41 | 41.16750 | -8.29994 | 33176 ft | 457 kts | 245° |
| 2026-04-13 15:41 | 41.12960 | -8.36784 | 33182 ft | 458 kts | 244° |
| 2026-04-13 15:42 | 41.09190 | -8.43527 | 33183 ft | 458 kts | 244° |
| 2026-04-13 15:42 | 41.05385 | -8.50304 | 33184 ft | 458 kts | 244° |
| 2026-04-13 15:43 | 41.01574 | -8.57078 | 33188 ft | 459 kts | 244° |
| 2026-04-13 15:43 | 40.97753 | -8.63860 | 33189 ft | 459 kts | 244° |
| 2026-04-13 15:44 | 40.93926 | -8.70633 | 33190 ft | 460 kts | 244° |
| 2026-04-13 15:44 | 40.90092 | -8.77409 | 33193 ft | 460 kts | 244° |
| 2026-04-13 15:45 | 40.86249 | -8.84174 | 33187 ft | 461 kts | 244° |
| 2026-04-13 15:45 | 40.82420 | -8.90895 | 33183 ft | 461 kts | 244° |
| 2026-04-13 15:46 | 40.78564 | -8.97665 | 33176 ft | 462 kts | 244° |
| 2026-04-13 15:46 | 40.74698 | -9.04429 | 33179 ft | 462 kts | 244° |
| 2026-04-13 15:47 | 40.70827 | -9.11200 | 33175 ft | 462 kts | 244° |
| 2026-04-13 15:47 | 40.66953 | -9.17963 | 33177 ft | 463 kts | 243° |
| 2026-04-13 15:48 | 40.63067 | -9.24720 | 33177 ft | 463 kts | 243° |
| 2026-04-13 15:48 | 40.59176 | -9.31474 | 33181 ft | 463 kts | 243° |
| 2026-04-13 15:49 | 40.55284 | -9.38225 | 33191 ft | 463 kts | 243° |
| 2026-04-13 15:49 | 40.51386 | -9.44959 | 33199 ft | 463 kts | 243° |
| 2026-04-13 15:50 | 40.47483 | -9.51680 | 33191 ft | 462 kts | 243° |
| 2026-04-13 15:50 | 40.43585 | -9.58384 | 33193 ft | 462 kts | 243° |
| 2026-04-13 15:51 | 40.39687 | -9.65077 | 33183 ft | 461 kts | 243° |
| 2026-04-13 15:51 | 40.35791 | -9.71764 | 33181 ft | 462 kts | 243° |
| 2026-04-13 15:52 | 40.31876 | -9.78451 | 33176 ft | 462 kts | 243° |
| 2026-04-13 15:52 | 40.27962 | -9.85127 | 33180 ft | 462 kts | 243° |
| 2026-04-13 15:53 | 40.24037 | -9.91797 | 33181 ft | 463 kts | 243° |
| 2026-04-13 15:53 | 40.20114 | -9.98462 | 33181 ft | 462 kts | 243° |
| 2026-04-13 15:54 | 40.16190 | -10.05126 | 33178 ft | 462 kts | 242° |
| 2026-04-13 15:54 | 40.12287 | -10.11733 | 33190 ft | 463 kts | 242° |
| 2026-04-13 15:55 | 40.08346 | -10.18378 | 33189 ft | 463 kts | 242° |
| 2026-04-13 15:55 | 40.04401 | -10.25018 | 33192 ft | 463 kts | 242° |
| 2026-04-13 15:56 | 40.00459 | -10.31658 | 33190 ft | 463 kts | 242° |
| 2026-04-13 15:56 | 39.96511 | -10.38288 | 33189 ft | 463 kts | 242° |
| 2026-04-13 15:57 | 39.92551 | -10.44913 | 33189 ft | 463 kts | 242° |
| 2026-04-13 15:57 | 39.88584 | -10.51524 | 33189 ft | 464 kts | 242° |
| 2026-04-13 15:58 | 39.84613 | -10.58138 | 33184 ft | 464 kts | 242° |
| 2026-04-13 15:58 | 39.80639 | -10.64752 | 33196 ft | 464 kts | 241° |
| 2026-04-13 15:59 | 39.76658 | -10.71349 | 33195 ft | 463 kts | 241° |
| 2026-04-13 15:59 | 39.72680 | -10.77940 | 33202 ft | 463 kts | 241° |
| 2026-04-13 16:00 | 39.68697 | -10.84525 | 33203 ft | 463 kts | 241° |
| 2026-04-13 16:00 | 39.64712 | -10.91102 | 33209 ft | 463 kts | 241° |
| 2026-04-13 16:01 | 39.60727 | -10.97669 | 33209 ft | 463 kts | 241° |
| 2026-04-13 16:01 | 39.56733 | -11.04222 | 33211 ft | 463 kts | 241° |
| 2026-04-13 16:02 | 39.52765 | -11.10723 | 33211 ft | 463 kts | 240° |
| 2026-04-13 16:02 | 39.48765 | -11.17262 | 33215 ft | 463 kts | 240° |
| 2026-04-13 16:03 | 39.44762 | -11.23798 | 33221 ft | 463 kts | 240° |
| 2026-04-13 16:03 | 39.40756 | -11.30329 | 33224 ft | 463 kts | 240° |
| 2026-04-13 16:04 | 39.36739 | -11.36847 | 33218 ft | 464 kts | 240° |
| 2026-04-13 16:04 | 39.32801 | -11.43246 | 33218 ft | 463 kts | 240° |
| 2026-04-13 16:05 | 39.28785 | -11.49748 | 33237 ft | 463 kts | 240° |
| 2026-04-13 16:05 | 39.24761 | -11.56238 | 33235 ft | 463 kts | 240° |
| 2026-04-13 16:06 | 39.20770 | -11.62672 | 33239 ft | 463 kts | 240° |
| 2026-04-13 16:06 | 39.16748 | -11.69149 | 33238 ft | 462 kts | 240° |
| 2026-04-13 16:07 | 39.12727 | -11.75617 | 33241 ft | 462 kts | 239° |
| 2026-04-13 16:07 | 39.08700 | -11.82069 | 33242 ft | 463 kts | 239° |
| 2026-04-13 16:08 | 39.04665 | -11.88518 | 33246 ft | 462 kts | 239° |
| 2026-04-13 16:08 | 39.00639 | -11.94950 | 33240 ft | 462 kts | 239° |
| 2026-04-13 16:09 | 38.96604 | -12.01375 | 33245 ft | 462 kts | 239° |
| 2026-04-13 16:09 | 38.92573 | -12.07789 | 33244 ft | 461 kts | 239° |
| 2026-04-13 16:10 | 38.88533 | -12.14193 | 33249 ft | 461 kts | 239° |
| 2026-04-13 16:10 | 38.84485 | -12.20581 | 33244 ft | 461 kts | 239° |
| 2026-04-13 16:11 | 38.80447 | -12.26974 | 33259 ft | 461 kts | 239° |
| 2026-04-13 16:11 | 38.76406 | -12.33353 | 33258 ft | 461 kts | 239° |
| 2026-04-13 16:12 | 38.72356 | -12.39719 | 33258 ft | 461 kts | 239° |
| 2026-04-13 16:12 | 38.68308 | -12.46072 | 33260 ft | 460 kts | 238° |
| 2026-04-13 16:13 | 38.64286 | -12.52377 | 33267 ft | 460 kts | 238° |
| 2026-04-13 16:13 | 38.60243 | -12.58723 | 33264 ft | 460 kts | 238° |
| 2026-04-13 16:14 | 38.56192 | -12.65056 | 33272 ft | 460 kts | 238° |
| 2026-04-13 16:14 | 38.52130 | -12.71379 | 33273 ft | 460 kts | 238° |
| 2026-04-13 16:15 | 38.48060 | -12.77689 | 33272 ft | 460 kts | 238° |
| 2026-04-13 16:15 | 38.44000 | -12.84002 | 33264 ft | 460 kts | 238° |
| 2026-04-13 16:16 | 38.39937 | -12.90311 | 33270 ft | 460 kts | 238° |
| 2026-04-13 16:16 | 38.35857 | -12.96615 | 33273 ft | 461 kts | 238° |
| 2026-04-13 16:17 | 38.31780 | -13.02906 | 33272 ft | 461 kts | 238° |
| 2026-04-13 16:17 | 38.27692 | -13.09189 | 33265 ft | 461 kts | 238° |
| 2026-04-13 16:18 | 38.23606 | -13.15472 | 33270 ft | 461 kts | 238° |
| 2026-04-13 16:18 | 38.19549 | -13.21710 | 33272 ft | 461 kts | 238° |
| 2026-04-13 16:19 | 38.15455 | -13.27980 | 33277 ft | 461 kts | 238° |
| 2026-04-13 16:19 | 38.11356 | -13.34239 | 33272 ft | 461 kts | 238° |
| 2026-04-13 16:20 | 38.07257 | -13.40494 | 33281 ft | 461 kts | 238° |
| 2026-04-13 16:20 | 38.03160 | -13.46743 | 33279 ft | 461 kts | 237° |
| 2026-04-13 16:21 | 37.99055 | -13.52981 | 33283 ft | 461 kts | 237° |
| 2026-04-13 16:21 | 37.94939 | -13.59213 | 33284 ft | 461 kts | 237° |
| 2026-04-13 16:22 | 37.91519 | -13.64384 | 33283 ft | 461 kts | 237° |
| 2026-04-13 16:23 | 37.85351 | -13.73705 | 33288 ft | 460 kts | 237° |
| 2026-04-13 16:23 | 37.81239 | -13.79921 | 33292 ft | 460 kts | 237° |
| 2026-04-13 16:24 | 37.77114 | -13.86117 | 33288 ft | 461 kts | 237° |
| 2026-04-13 16:24 | 37.72985 | -13.92303 | 33286 ft | 461 kts | 237° |
| 2026-04-13 16:25 | 37.68850 | -13.98495 | 33295 ft | 461 kts | 237° |
| 2026-04-13 16:25 | 37.64714 | -14.04685 | 33291 ft | 461 kts | 237° |
| 2026-04-13 16:26 | 37.60575 | -14.10876 | 33294 ft | 462 kts | 237° |
| 2026-04-13 16:26 | 37.56427 | -14.17060 | 33291 ft | 462 kts | 237° |
| 2026-04-13 16:27 | 37.52268 | -14.23238 | 33299 ft | 462 kts | 237° |
| 2026-04-13 16:27 | 37.48109 | -14.29414 | 33295 ft | 462 kts | 237° |
| 2026-04-13 16:28 | 37.43948 | -14.35581 | 33297 ft | 462 kts | 236° |
| 2026-04-13 16:28 | 37.39781 | -14.41743 | 33294 ft | 463 kts | 236° |
| 2026-04-13 16:29 | 37.35601 | -14.47902 | 33301 ft | 463 kts | 236° |
| 2026-04-13 16:29 | 37.31447 | -14.54016 | 33298 ft | 463 kts | 236° |
| 2026-04-13 16:30 | 37.27273 | -14.60173 | 33305 ft | 463 kts | 236° |
| 2026-04-13 16:30 | 37.23086 | -14.66321 | 33298 ft | 463 kts | 236° |
| 2026-04-13 16:31 | 37.18898 | -14.72456 | 33307 ft | 463 kts | 236° |
| 2026-04-13 16:31 | 37.14707 | -14.78587 | 33302 ft | 463 kts | 236° |
| 2026-04-13 16:32 | 37.10511 | -14.84702 | 33304 ft | 463 kts | 236° |
| 2026-04-13 16:32 | 37.06313 | -14.90816 | 33301 ft | 463 kts | 236° |
| 2026-04-13 16:33 | 37.02163 | -14.96961 | 33302 ft | 458 kts | 241° |
| 2026-04-13 16:33 | 36.99369 | -15.03905 | 33301 ft | 440 kts | 260° |
| 2026-04-13 16:34 | 36.98002 | -15.11296 | 33304 ft | 436 kts | 264° |
| 2026-04-13 16:34 | 36.96688 | -15.18696 | 33298 ft | 436 kts | 264° |
| 2026-04-13 16:35 | 36.95359 | -15.26104 | 33306 ft | 437 kts | 264° |
| 2026-04-13 16:35 | 36.94019 | -15.33513 | 33303 ft | 437 kts | 264° |
| 2026-04-13 16:36 | 36.92679 | -15.40929 | 33312 ft | 437 kts | 264° |
| 2026-04-13 16:36 | 36.91357 | -15.48297 | 33306 ft | 437 kts | 264° |
| 2026-04-13 16:37 | 36.90021 | -15.55715 | 33312 ft | 438 kts | 264° |
| 2026-04-13 16:37 | 36.88670 | -15.63130 | 33308 ft | 438 kts | 263° |
| 2026-04-13 16:38 | 36.87312 | -15.70551 | 33313 ft | 438 kts | 264° |
| 2026-04-13 16:38 | 36.85948 | -15.77967 | 33306 ft | 438 kts | 263° |
| 2026-04-13 16:39 | 36.84577 | -15.85373 | 33313 ft | 438 kts | 264° |
| 2026-04-13 16:39 | 36.83205 | -15.92787 | 33316 ft | 439 kts | 263° |
| 2026-04-13 16:40 | 36.81828 | -16.00205 | 33319 ft | 439 kts | 264° |
| 2026-04-13 16:40 | 36.80443 | -16.07625 | 33317 ft | 439 kts | 263° |
| 2026-04-13 16:41 | 36.79056 | -16.15040 | 33319 ft | 439 kts | 264° |
| 2026-04-13 16:41 | 36.77664 | -16.22453 | 33312 ft | 439 kts | 263° |
| 2026-04-13 16:42 | 36.76269 | -16.29868 | 33313 ft | 439 kts | 264° |
| 2026-04-13 16:42 | 36.74868 | -16.37290 | 33316 ft | 440 kts | 264° |
| 2026-04-13 16:43 | 36.73462 | -16.44711 | 33313 ft | 440 kts | 264° |
| 2026-04-13 16:43 | 36.72056 | -16.52133 | 33314 ft | 440 kts | 264° |
| 2026-04-13 16:44 | 36.70638 | -16.59555 | 33317 ft | 440 kts | 264° |
| 2026-04-13 16:44 | 36.69212 | -16.66970 | 33316 ft | 440 kts | 264° |
| 2026-04-13 16:45 | 36.67785 | -16.74386 | 33318 ft | 440 kts | 264° |
| 2026-04-13 16:45 | 36.66359 | -16.81754 | 33316 ft | 441 kts | 264° |
| 2026-04-13 16:46 | 36.64925 | -16.89172 | 33318 ft | 440 kts | 264° |
| 2026-04-13 16:46 | 36.63483 | -16.96586 | 33314 ft | 440 kts | 264° |
| 2026-04-13 16:47 | 36.62027 | -17.03990 | 33323 ft | 441 kts | 264° |
| 2026-04-13 16:47 | 36.60568 | -17.11403 | 33323 ft | 441 kts | 264° |
| 2026-04-13 16:48 | 36.59113 | -17.18818 | 33324 ft | 441 kts | 264° |
| 2026-04-13 16:48 | 36.57661 | -17.26233 | 33325 ft | 441 kts | 264° |
| 2026-04-13 16:49 | 36.56198 | -17.33655 | 33327 ft | 442 kts | 264° |
| 2026-04-13 16:49 | 36.54720 | -17.41072 | 33329 ft | 442 kts | 263° |
| 2026-04-13 16:50 | 36.53229 | -17.48490 | 33326 ft | 443 kts | 264° |
| 2026-04-13 16:50 | 36.51752 | -17.55868 | 33326 ft | 443 kts | 264° |
| 2026-04-13 16:51 | 36.50267 | -17.63295 | 33332 ft | 443 kts | 264° |
| 2026-04-13 16:51 | 36.48768 | -17.70723 | 33326 ft | 443 kts | 264° |
| 2026-04-13 16:52 | 36.47264 | -17.78145 | 33332 ft | 443 kts | 264° |
| 2026-04-13 16:52 | 36.45759 | -17.85561 | 33324 ft | 443 kts | 263° |
| 2026-04-13 16:53 | 36.44249 | -17.92979 | 33325 ft | 443 kts | 264° |
| 2026-04-13 16:53 | 36.42745 | -18.00403 | 33319 ft | 443 kts | 264° |
| 2026-04-13 16:54 | 36.41217 | -18.07821 | 33327 ft | 444 kts | 263° |
| 2026-04-13 16:54 | 36.39683 | -18.15239 | 33320 ft | 444 kts | 263° |
| 2026-04-13 16:55 | 36.38152 | -18.22658 | 33326 ft | 444 kts | 263° |
| 2026-04-13 16:55 | 36.36612 | -18.30077 | 33324 ft | 444 kts | 263° |
| 2026-04-13 16:56 | 36.35070 | -18.37491 | 33328 ft | 444 kts | 263° |
| 2026-04-13 16:56 | 36.33537 | -18.44902 | 33106 ft | 441 kts | 259° |
| 2026-04-13 16:56 | 36.32787 | -18.48505 | 33292 ft | 435 kts | 258° |
| 2026-04-13 16:57 | 36.32026 | -18.52134 | 33346 ft | 435 kts | 258° |
| 2026-04-13 16:57 | 36.30503 | -18.59388 | 33354 ft | 434 kts | 258° |
| 2026-04-13 16:58 | 36.28974 | -18.66623 | 33352 ft | 433 kts | 258° |
| 2026-04-13 16:58 | 36.27454 | -18.73841 | 33351 ft | 433 kts | 258° |
| 2026-04-13 16:59 | 36.25930 | -18.81055 | 33345 ft | 433 kts | 258° |
| 2026-04-13 16:59 | 36.24398 | -18.88259 | 33343 ft | 432 kts | 257° |
| 2026-04-13 17:00 | 36.22857 | -18.95458 | 33341 ft | 432 kts | 257° |
| 2026-04-13 17:00 | 36.21313 | -19.02649 | 33336 ft | 432 kts | 257° |
| 2026-04-13 17:01 | 36.19769 | -19.09840 | 33333 ft | 432 kts | 257° |
| 2026-04-13 17:01 | 36.18221 | -19.17031 | 33333 ft | 432 kts | 257° |
| 2026-04-13 17:02 | 36.16674 | -19.24227 | 33334 ft | 432 kts | 257° |
| 2026-04-13 17:02 | 36.15120 | -19.31411 | 33332 ft | 432 kts | 257° |
| 2026-04-13 17:03 | 36.13549 | -19.38592 | 33334 ft | 432 kts | 257° |
| 2026-04-13 17:03 | 36.11994 | -19.45724 | 33337 ft | 432 kts | 257° |
| 2026-04-13 17:04 | 36.10423 | -19.52900 | 33330 ft | 432 kts | 257° |
| 2026-04-13 17:04 | 36.08849 | -19.60077 | 33332 ft | 432 kts | 257° |
| 2026-04-13 17:05 | 36.07271 | -19.67251 | 33339 ft | 433 kts | 257° |
| 2026-04-13 17:05 | 36.05680 | -19.74425 | 33336 ft | 433 kts | 257° |
| 2026-04-13 17:06 | 36.04094 | -19.81593 | 33338 ft | 433 kts | 257° |
| 2026-04-13 17:06 | 36.02501 | -19.88766 | 33334 ft | 433 kts | 257° |
| 2026-04-13 17:07 | 36.00905 | -19.95932 | 33339 ft | 433 kts | 258° |
| 2026-04-13 17:07 | 36.00401 | -20.03244 | 33333 ft | 427 kts | 277° |
| 2026-04-13 17:08 | 36.01249 | -20.10500 | 33333 ft | 427 kts | 279° |
| 2026-04-13 17:08 | 36.02083 | -20.17761 | 33335 ft | 427 kts | 279° |
| 2026-04-13 17:09 | 36.02914 | -20.25032 | 33335 ft | 428 kts | 279° |
| 2026-04-13 17:09 | 36.03747 | -20.32311 | 33335 ft | 428 kts | 279° |
| 2026-04-13 17:10 | 36.04576 | -20.39542 | 33340 ft | 428 kts | 279° |
| 2026-04-13 17:10 | 36.05405 | -20.46823 | 33341 ft | 428 kts | 279° |
| 2026-04-13 17:11 | 36.06222 | -20.54110 | 33342 ft | 428 kts | 279° |
| 2026-04-13 17:11 | 36.07039 | -20.61402 | 33342 ft | 428 kts | 279° |
| 2026-04-13 17:12 | 36.07857 | -20.68692 | 33342 ft | 428 kts | 279° |
| 2026-04-13 17:12 | 36.08670 | -20.75986 | 33343 ft | 428 kts | 279° |
| 2026-04-13 17:13 | 36.09474 | -20.83287 | 33339 ft | 429 kts | 278° |
| 2026-04-13 17:13 | 36.10272 | -20.90591 | 33341 ft | 429 kts | 278° |
| 2026-04-13 17:14 | 36.11076 | -20.97896 | 33337 ft | 429 kts | 278° |
| 2026-04-13 17:14 | 36.11874 | -21.05206 | 33339 ft | 429 kts | 278° |
| 2026-04-13 17:15 | 36.12533 | -21.11284 | 33341 ft | 429 kts | 278° |
| 2026-04-13 17:15 | 36.13319 | -21.18600 | 33338 ft | 429 kts | 278° |
| 2026-04-13 17:16 | 36.14096 | -21.25917 | 33337 ft | 429 kts | 278° |
| 2026-04-13 17:16 | 36.14867 | -21.33234 | 33338 ft | 429 kts | 278° |
| 2026-04-13 17:17 | 36.15640 | -21.40556 | 33341 ft | 429 kts | 278° |
| 2026-04-13 17:17 | 36.16406 | -21.47876 | 33340 ft | 429 kts | 278° |
| 2026-04-13 17:18 | 36.17174 | -21.55198 | 33338 ft | 429 kts | 278° |
| 2026-04-13 17:18 | 36.17933 | -21.62522 | 33334 ft | 429 kts | 278° |
| 2026-04-13 17:19 | 36.18683 | -21.69844 | 33336 ft | 429 kts | 278° |
| 2026-04-13 17:19 | 36.19435 | -21.77168 | 33334 ft | 429 kts | 277° |
| 2026-04-13 17:20 | 36.20177 | -21.84498 | 33334 ft | 429 kts | 277° |
| 2026-04-13 17:20 | 36.20916 | -21.91825 | 33333 ft | 429 kts | 277° |
| 2026-04-13 17:21 | 36.21650 | -21.99155 | 33331 ft | 429 kts | 277° |
| 2026-04-13 17:21 | 36.22385 | -22.06486 | 33330 ft | 429 kts | 277° |
| 2026-04-13 17:22 | 36.23116 | -22.13815 | 33329 ft | 429 kts | 277° |
| 2026-04-13 17:22 | 36.23832 | -22.21097 | 33328 ft | 429 kts | 277° |
| 2026-04-13 17:23 | 36.24550 | -22.28436 | 33330 ft | 429 kts | 277° |
| 2026-04-13 17:23 | 36.25272 | -22.35772 | 33325 ft | 429 kts | 277° |
| 2026-04-13 17:24 | 36.25979 | -22.43104 | 33323 ft | 429 kts | 277° |
| 2026-04-13 17:24 | 36.26679 | -22.50442 | 33322 ft | 429 kts | 277° |
| 2026-04-13 17:25 | 36.27380 | -22.57785 | 33323 ft | 429 kts | 277° |
| 2026-04-13 17:25 | 36.28081 | -22.65119 | 33322 ft | 429 kts | 277° |
| 2026-04-13 17:26 | 36.28768 | -22.72460 | 33321 ft | 429 kts | 276° |
| 2026-04-13 17:26 | 36.29448 | -22.79796 | 33318 ft | 429 kts | 276° |
| 2026-04-13 17:27 | 36.30481 | -22.90804 | 33316 ft | 428 kts | 276° |
| 2026-04-13 17:27 | 36.31159 | -22.98140 | 33315 ft | 428 kts | 276° |
| 2026-04-13 17:28 | 36.31828 | -23.05477 | 33316 ft | 428 kts | 276° |
| 2026-04-13 17:28 | 36.32478 | -23.12765 | 33312 ft | 428 kts | 276° |
| 2026-04-13 17:29 | 36.33140 | -23.20103 | 33313 ft | 428 kts | 276° |
| 2026-04-13 17:29 | 36.33808 | -23.27437 | 33311 ft | 428 kts | 276° |
| 2026-04-13 17:30 | 36.34469 | -23.34767 | 33306 ft | 428 kts | 276° |
| 2026-04-13 17:30 | 36.35110 | -23.42095 | 33307 ft | 427 kts | 276° |
| 2026-04-13 17:31 | 36.35738 | -23.49426 | 33306 ft | 427 kts | 275° |
| 2026-04-13 17:31 | 36.36373 | -23.56750 | 33307 ft | 427 kts | 276° |
| 2026-04-13 17:32 | 36.37018 | -23.64072 | 33305 ft | 427 kts | 276° |
| 2026-04-13 17:32 | 36.37647 | -23.71392 | 33301 ft | 427 kts | 275° |
| 2026-04-13 17:33 | 36.38265 | -23.78715 | 33301 ft | 426 kts | 275° |
| 2026-04-13 17:33 | 36.38879 | -23.86030 | 33301 ft | 426 kts | 275° |
| 2026-04-13 17:34 | 36.39866 | -23.96934 | 33290 ft | 426 kts | 281° |
| 2026-04-13 17:34 | 36.40768 | -24.00431 | 33292 ft | 428 kts | 293° |
| 2026-04-13 17:35 | 36.42255 | -24.03636 | 33288 ft | 430 kts | 304° |
| 2026-04-13 17:35 | 36.44273 | -24.06388 | 33286 ft | 434 kts | 316° |
| 2026-04-13 17:35 | 36.46627 | -24.08735 | 33284 ft | 435 kts | 319° |
| 2026-04-13 17:36 | 36.51373 | -24.13396 | 33279 ft | 435 kts | 319° |
| 2026-04-13 17:36 | 36.56129 | -24.18090 | 32802 ft | 438 kts | 319° |
| 2026-04-13 17:36 | 36.58504 | -24.20442 | 32190 ft | 434 kts | 318° |
| 2026-04-13 17:37 | 36.60856 | -24.22775 | 31590 ft | 431 kts | 318° |
| 2026-04-13 17:37 | 36.63186 | -24.25090 | 30992 ft | 428 kts | 318° |
| 2026-04-13 17:37 | 36.65506 | -24.27397 | 30391 ft | 425 kts | 318° |
| 2026-04-13 17:37 | 36.67812 | -24.29687 | 29751 ft | 422 kts | 318° |
| 2026-04-13 17:38 | 36.70097 | -24.31957 | 29176 ft | 418 kts | 318° |
| 2026-04-13 17:38 | 36.72360 | -24.34204 | 28606 ft | 413 kts | 318° |
| 2026-04-13 17:38 | 36.74597 | -24.36430 | 28038 ft | 409 kts | 318° |
| 2026-04-13 17:38 | 36.76810 | -24.38637 | 27480 ft | 406 kts | 318° |
| 2026-04-13 17:39 | 36.79002 | -24.40827 | 26927 ft | 402 kts | 318° |
| 2026-04-13 17:39 | 36.81144 | -24.42968 | 26394 ft | 398 kts | 317° |
| 2026-04-13 17:39 | 36.83299 | -24.45122 | 25865 ft | 395 kts | 317° |
| 2026-04-13 17:39 | 36.85432 | -24.47254 | 25347 ft | 391 kts | 317° |
| 2026-04-13 17:40 | 36.87548 | -24.49369 | 24840 ft | 388 kts | 317° |
| 2026-04-13 17:40 | 36.89645 | -24.51465 | 24350 ft | 384 kts | 317° |
| 2026-04-13 17:40 | 36.91723 | -24.53542 | 23875 ft | 381 kts | 317° |
| 2026-04-13 17:40 | 36.93782 | -24.55601 | 23354 ft | 377 kts | 317° |
| 2026-04-13 17:41 | 36.95811 | -24.57634 | 22910 ft | 371 kts | 317° |
| 2026-04-13 17:41 | 36.97814 | -24.59644 | 22471 ft | 367 kts | 317° |
| 2026-04-13 17:41 | 36.99788 | -24.61632 | 22023 ft | 363 kts | 317° |
| 2026-04-13 17:41 | 37.01747 | -24.63602 | 21587 ft | 359 kts | 317° |
| 2026-04-13 17:42 | 37.03685 | -24.65555 | 21140 ft | 357 kts | 317° |
| 2026-04-13 17:42 | 37.05611 | -24.67497 | 20692 ft | 354 kts | 317° |
| 2026-04-13 17:42 | 37.07525 | -24.69432 | 20230 ft | 353 kts | 317° |
| 2026-04-13 17:42 | 37.09435 | -24.71359 | 19771 ft | 352 kts | 317° |
| 2026-04-13 17:43 | 37.11339 | -24.73278 | 19310 ft | 351 kts | 317° |
| 2026-04-13 17:43 | 37.13240 | -24.75193 | 18848 ft | 351 kts | 317° |
| 2026-04-13 17:43 | 37.15144 | -24.77109 | 18350 ft | 351 kts | 317° |
| 2026-04-13 17:43 | 37.17042 | -24.79020 | 17856 ft | 349 kts | 317° |
| 2026-04-13 17:44 | 37.18928 | -24.80926 | 17386 ft | 347 kts | 317° |
| 2026-04-13 17:44 | 37.20800 | -24.82824 | 16940 ft | 345 kts | 316° |
| 2026-04-13 17:44 | 37.22664 | -24.84716 | 16481 ft | 344 kts | 317° |
| 2026-04-13 17:44 | 37.24521 | -24.86598 | 16030 ft | 343 kts | 317° |
| 2026-04-13 17:45 | 37.26372 | -24.88472 | 15575 ft | 342 kts | 317° |
| 2026-04-13 17:45 | 37.28217 | -24.90343 | 15123 ft | 341 kts | 317° |
| 2026-04-13 17:45 | 37.30058 | -24.92214 | 14675 ft | 340 kts | 317° |
| 2026-04-13 17:45 | 37.31894 | -24.94079 | 14227 ft | 339 kts | 317° |
| 2026-04-13 17:46 | 37.33728 | -24.95945 | 13722 ft | 339 kts | 317° |
| 2026-04-13 17:46 | 37.35555 | -24.97807 | 13250 ft | 337 kts | 317° |
| 2026-04-13 17:46 | 37.37372 | -24.99659 | 12787 ft | 335 kts | 317° |
| 2026-04-13 17:46 | 37.39177 | -25.01496 | 12316 ft | 333 kts | 317° |
| 2026-04-13 17:47 | 37.40974 | -25.03323 | 11847 ft | 331 kts | 317° |
| 2026-04-13 17:47 | 37.42763 | -25.05141 | 11361 ft | 330 kts | 317° |
| 2026-04-13 17:47 | 37.44543 | -25.06954 | 10894 ft | 328 kts | 317° |
| 2026-04-13 17:47 | 37.46282 | -25.08729 | 10601 ft | 321 kts | 316° |
| 2026-04-13 17:48 | 37.47984 | -25.10468 | 10487 ft | 309 kts | 316° |
| 2026-04-13 17:48 | 37.49621 | -25.12140 | 10356 ft | 297 kts | 316° |
| 2026-04-13 17:48 | 37.51176 | -25.13728 | 10197 ft | 289 kts | 316° |
| 2026-04-13 17:48 | 37.52719 | -25.15308 | 9898 ft | 285 kts | 316° |
| 2026-04-13 17:49 | 37.54251 | -25.16881 | 9503 ft | 284 kts | 316° |
| 2026-04-13 17:49 | 37.55776 | -25.18446 | 9111 ft | 282 kts | 316° |
| 2026-04-13 17:49 | 37.57295 | -25.20003 | 8727 ft | 281 kts | 316° |
| 2026-04-13 17:49 | 37.58680 | -25.21689 | 8342 ft | 273 kts | 302° |
| 2026-04-13 17:50 | 37.59584 | -25.23737 | 7975 ft | 265 kts | 288° |
| 2026-04-13 17:50 | 37.60262 | -25.25886 | 7614 ft | 263 kts | 288° |
| 2026-04-13 17:50 | 37.60943 | -25.28016 | 7255 ft | 261 kts | 288° |
| 2026-04-13 17:50 | 37.61621 | -25.30123 | 6897 ft | 258 kts | 289° |
| 2026-04-13 17:51 | 37.62293 | -25.32212 | 6530 ft | 256 kts | 288° |
| 2026-04-13 17:51 | 37.62954 | -25.34279 | 6171 ft | 252 kts | 288° |
| 2026-04-13 17:51 | 37.63601 | -25.36308 | 5786 ft | 250 kts | 288° |
| 2026-04-13 17:51 | 37.64232 | -25.38300 | 5301 ft | 250 kts | 288° |
| 2026-04-13 17:52 | 37.64862 | -25.40286 | 4934 ft | 237 kts | 288° |
| 2026-04-13 17:52 | 37.65456 | -25.42157 | 4637 ft | 222 kts | 288° |
| 2026-04-13 17:52 | 37.66005 | -25.43888 | 4350 ft | 209 kts | 287° |
| 2026-04-13 17:52 | 37.66539 | -25.45572 | 4066 ft | 200 kts | 287° |
| 2026-04-13 17:53 | 37.66877 | -25.46636 | 3901 ft | 194 kts | 287° |
| 2026-04-13 17:53 | 37.67530 | -25.48691 | 3571 ft | 189 kts | 287° |
| 2026-04-13 17:53 | 37.68019 | -25.50236 | 3312 ft | 190 kts | 287° |
| 2026-04-13 17:53 | 37.68511 | -25.51786 | 3059 ft | 190 kts | 286° |
| 2026-04-13 17:54 | 37.68995 | -25.53308 | 2818 ft | 183 kts | 286° |
| 2026-04-13 17:54 | 37.69460 | -25.54773 | 2554 ft | 177 kts | 285° |
| 2026-04-13 17:54 | 37.69908 | -25.56186 | 2319 ft | 168 kts | 285° |
| 2026-04-13 17:54 | 37.70326 | -25.57500 | 2111 ft | 154 kts | 284° |
| 2026-04-13 17:55 | 37.70708 | -25.58704 | 1901 ft | 142 kts | 284° |
| 2026-04-13 17:55 | 37.71060 | -25.59819 | 1727 ft | 133 kts | 284° |
| 2026-04-13 17:55 | 37.71398 | -25.60890 | 1543 ft | 130 kts | 283° |
| 2026-04-13 17:55 | 37.71732 | -25.61949 | 1369 ft | 129 kts | 282° |
| 2026-04-13 17:56 | 37.72063 | -25.62999 | 1182 ft | 129 kts | 282° |
| 2026-04-13 17:56 | 37.72396 | -25.64055 | 1009 ft | 131 kts | 282° |
| 2026-04-13 17:56 | 37.72734 | -25.65129 | 824 ft | 132 kts | 283° |
| 2026-04-13 17:56 | 37.73069 | -25.66190 | 642 ft | 131 kts | 286° |
| 2026-04-13 17:57 | 37.73403 | -25.67260 | 457 ft | 131 kts | 285° |
| 2026-04-13 17:57 | 37.73747 | -25.68336 | 284 ft | 132 kts | 280° |
| 2026-04-13 17:57 | 37.74090 | -25.69379 | 218 ft | 117 kts | 279° |
| 2026-04-13 17:57 | 37.74315 | -25.70140 | 242 ft | 68 kts | 292° |
| 2026-04-13 17:58 | 37.74447 | -25.70556 | 260 ft | 43 kts | 291° |
| 2026-04-13 17:58 | 37.74526 | -25.70798 | 269 ft | 18 kts | 291° |
| 2026-04-13 17:58 | 37.74584 | -25.70848 | 271 ft | 8 kts | 5° |
| 2026-04-13 17:58 | 37.74634 | -25.70830 | 272 ft | 7 kts | 17° |
| 2026-04-13 17:59 | 37.74684 | -25.70827 | 272 ft | 8 kts | 356° |
| 2026-04-13 17:59 | 37.74722 | -25.70858 | 273 ft | 6 kts | 303° |
| 2026-04-13 17:59 | 37.74742 | -25.70918 | 274 ft | 8 kts | 290° |
| 2026-04-13 17:59 | 37.74760 | -25.70978 | 272 ft | 7 kts | 291° |
| 2026-04-13 18:00 | 37.74783 | -25.71020 | 272 ft | 5 kts | 336° |
| 2026-04-13 18:00 | 37.74816 | -25.71012 | 274 ft | 6 kts | 19° |
| 2026-04-13 18:00 | 37.74840 | -25.70999 | 272 ft | 1 kts | 23° |
| 2026-04-13 18:00 | 37.74842 | -25.70998 | 272 ft | 0 kts | 23° |